sensor_id;sensor_type;location;lat;lon;timestamp;P1;durP1;ratioP1;P2;durP2;ratioP2
14510;SDS011;7341;50.930;4.038;2022-11-20T00:00:19;58.63;;;30.93;;
14510;SDS011;7341;50.930;4.038;2022-11-20T00:02:45;61.70;;;31.07;;
14510;SDS011;7341;50.930;4.038;2022-11-20T00:05:12;61.37;;;31.00;;
14510;SDS011;7341;50.930;4.038;2022-11-20T00:07:39;56.80;;;29.50;;
14510;SDS011;7341;50.930;4.038;2022-11-20T00:10:06;54.80;;;29.90;;
14510;SDS011;7341;50.930;4.038;2022-11-20T00:12:33;53.30;;;30.00;;
14510;SDS011;7341;50.930;4.038;2022-11-20T00:15:00;56.80;;;31.03;;
14510;SDS011;7341;50.930;4.038;2022-11-20T00:17:28;50.70;;;28.23;;
14510;SDS011;7341;50.930;4.038;2022-11-20T00:19:55;54.87;;;30.67;;
14510;SDS011;7341;50.930;4.038;2022-11-20T00:22:22;57.80;;;29.60;;
14510;SDS011;7341;50.930;4.038;2022-11-20T00:24:49;51.23;;;28.43;;
14510;SDS011;7341;50.930;4.038;2022-11-20T00:27:17;52.77;;;28.27;;
14510;SDS011;7341;50.930;4.038;2022-11-20T00:29:43;54.17;;;29.23;;
14510;SDS011;7341;50.930;4.038;2022-11-20T00:32:10;71.80;;;43.45;;
14510;SDS011;7341;50.930;4.038;2022-11-20T00:34:38;61.87;;;32.97;;
14510;SDS011;7341;50.930;4.038;2022-11-20T00:37:09;59.77;;;30.10;;
14510;SDS011;7341;50.930;4.038;2022-11-20T00:39:36;54.43;;;29.57;;
14510;SDS011;7341;50.930;4.038;2022-11-20T00:42:03;52.57;;;29.33;;
14510;SDS011;7341;50.930;4.038;2022-11-20T00:44:29;50.50;;;29.37;;
14510;SDS011;7341;50.930;4.038;2022-11-20T00:46:56;49.73;;;29.33;;
14510;SDS011;7341;50.930;4.038;2022-11-20T00:49:27;45.80;;;28.00;;
14510;SDS011;7341;50.930;4.038;2022-11-20T00:51:55;46.87;;;26.87;;
14510;SDS011;7341;50.930;4.038;2022-11-20T00:54:25;47.43;;;27.70;;
14510;SDS011;7341;50.930;4.038;2022-11-20T00:56:52;52.53;;;27.43;;
14510;SDS011;7341;50.930;4.038;2022-11-20T00:59:19;44.07;;;27.27;;
14510;SDS011;7341;50.930;4.038;2022-11-20T01:01:48;50.03;;;29.47;;
14510;SDS011;7341;50.930;4.038;2022-11-20T01:04:18;53.50;;;28.90;;
14510;SDS011;7341;50.930;4.038;2022-11-20T01:06:59;47.60;;;26.93;;
14510;SDS011;7341;50.930;4.038;2022-11-20T01:09:28;52.10;;;29.40;;
14510;SDS011;7341;50.930;4.038;2022-11-20T01:11:56;48.27;;;28.47;;
14510;SDS011;7341;50.930;4.038;2022-11-20T01:14:24;52.07;;;29.13;;
14510;SDS011;7341;50.930;4.038;2022-11-20T01:16:51;52.43;;;28.40;;
14510;SDS011;7341;50.930;4.038;2022-11-20T01:19:19;52.90;;;30.33;;
14510;SDS011;7341;50.930;4.038;2022-11-20T01:21:48;49.73;;;28.60;;
14510;SDS011;7341;50.930;4.038;2022-11-20T01:24:22;49.73;;;28.53;;
14510;SDS011;7341;50.930;4.038;2022-11-20T01:26:49;51.60;;;29.80;;
14510;SDS011;7341;50.930;4.038;2022-11-20T01:29:17;53.93;;;28.60;;
14510;SDS011;7341;50.930;4.038;2022-11-20T01:31:47;51.40;;;30.17;;
14510;SDS011;7341;50.930;4.038;2022-11-20T01:34:17;57.67;;;30.40;;
14510;SDS011;7341;50.930;4.038;2022-11-20T01:36:50;53.67;;;30.27;;
14510;SDS011;7341;50.930;4.038;2022-11-20T01:39:21;50.60;;;28.83;;
14510;SDS011;7341;50.930;4.038;2022-11-20T01:41:50;53.00;;;29.83;;
14510;SDS011;7341;50.930;4.038;2022-11-20T01:44:49;53.53;;;28.07;;
14510;SDS011;7341;50.930;4.038;2022-11-20T01:47:30;53.57;;;30.27;;
14510;SDS011;7341;50.930;4.038;2022-11-20T01:50:03;53.37;;;29.77;;
14510;SDS011;7341;50.930;4.038;2022-11-20T01:52:37;57.60;;;29.80;;
14510;SDS011;7341;50.930;4.038;2022-11-20T01:55:11;59.33;;;30.70;;
14510;SDS011;7341;50.930;4.038;2022-11-20T01:57:41;56.90;;;30.37;;
14510;SDS011;7341;50.930;4.038;2022-11-20T02:00:11;52.33;;;29.40;;
14510;SDS011;7341;50.930;4.038;2022-11-20T02:02:44;58.27;;;30.00;;
14510;SDS011;7341;50.930;4.038;2022-11-20T02:05:30;55.60;;;29.90;;
14510;SDS011;7341;50.930;4.038;2022-11-20T02:08:01;55.40;;;29.47;;
14510;SDS011;7341;50.930;4.038;2022-11-20T02:10:35;60.93;;;31.60;;
14510;SDS011;7341;50.930;4.038;2022-11-20T02:13:02;56.10;;;30.13;;
14510;SDS011;7341;50.930;4.038;2022-11-20T02:15:47;61.53;;;30.47;;
14510;SDS011;7341;50.930;4.038;2022-11-20T02:18:16;63.83;;;29.73;;
14510;SDS011;7341;50.930;4.038;2022-11-20T02:20:46;61.13;;;30.93;;
14510;SDS011;7341;50.930;4.038;2022-11-20T02:26:09;65.40;;;31.17;;
14510;SDS011;7341;50.930;4.038;2022-11-20T02:28:42;70.80;;;32.97;;
14510;SDS011;7341;50.930;4.038;2022-11-20T02:31:09;58.03;;;30.30;;
14510;SDS011;7341;50.930;4.038;2022-11-20T02:33:38;66.67;;;32.67;;
14510;SDS011;7341;50.930;4.038;2022-11-20T02:36:07;63.30;;;31.80;;
14510;SDS011;7341;50.930;4.038;2022-11-20T02:38:47;54.70;;;31.87;;
14510;SDS011;7341;50.930;4.038;2022-11-20T02:41:20;63.30;;;31.97;;
14510;SDS011;7341;50.930;4.038;2022-11-20T02:43:57;64.33;;;32.50;;
14510;SDS011;7341;50.930;4.038;2022-11-20T02:46:24;61.97;;;31.33;;
14510;SDS011;7341;50.930;4.038;2022-11-20T02:48:56;66.20;;;34.13;;
14510;SDS011;7341;50.930;4.038;2022-11-20T02:51:29;65.70;;;32.33;;
14510;SDS011;7341;50.930;4.038;2022-11-20T02:53:58;60.90;;;30.80;;
14510;SDS011;7341;50.930;4.038;2022-11-20T02:56:30;62.03;;;31.90;;
14510;SDS011;7341;50.930;4.038;2022-11-20T02:58:59;63.13;;;31.43;;
14510;SDS011;7341;50.930;4.038;2022-11-20T03:01:39;63.10;;;30.40;;
14510;SDS011;7341;50.930;4.038;2022-11-20T03:04:06;60.33;;;30.90;;
14510;SDS011;7341;50.930;4.038;2022-11-20T03:06:34;59.47;;;31.60;;
14510;SDS011;7341;50.930;4.038;2022-11-20T03:09:04;57.63;;;29.67;;
14510;SDS011;7341;50.930;4.038;2022-11-20T03:11:32;61.73;;;31.77;;
14510;SDS011;7341;50.930;4.038;2022-11-20T03:14:01;54.97;;;30.70;;
14510;SDS011;7341;50.930;4.038;2022-11-20T03:16:30;56.40;;;31.53;;
14510;SDS011;7341;50.930;4.038;2022-11-20T03:18:58;64.80;;;29.53;;
14510;SDS011;7341;50.930;4.038;2022-11-20T03:21:25;59.37;;;30.23;;
14510;SDS011;7341;50.930;4.038;2022-11-20T03:23:52;62.07;;;31.53;;
14510;SDS011;7341;50.930;4.038;2022-11-20T03:26:21;61.40;;;30.13;;
14510;SDS011;7341;50.930;4.038;2022-11-20T03:28:52;62.87;;;30.90;;
14510;SDS011;7341;50.930;4.038;2022-11-20T03:31:23;62.70;;;30.37;;
14510;SDS011;7341;50.930;4.038;2022-11-20T03:33:52;61.00;;;30.93;;
14510;SDS011;7341;50.930;4.038;2022-11-20T03:36:21;64.85;;;33.30;;
14510;SDS011;7341;50.930;4.038;2022-11-20T03:38:48;63.27;;;31.83;;
14510;SDS011;7341;50.930;4.038;2022-11-20T03:41:16;56.43;;;30.90;;
14510;SDS011;7341;50.930;4.038;2022-11-20T03:43:46;61.97;;;31.47;;
14510;SDS011;7341;50.930;4.038;2022-11-20T03:46:16;60.60;;;30.63;;
14510;SDS011;7341;50.930;4.038;2022-11-20T03:48:44;57.17;;;30.77;;
14510;SDS011;7341;50.930;4.038;2022-11-20T03:51:12;62.53;;;31.07;;
14510;SDS011;7341;50.930;4.038;2022-11-20T03:53:41;61.63;;;30.27;;
14510;SDS011;7341;50.930;4.038;2022-11-20T03:56:12;56.70;;;29.80;;
14510;SDS011;7341;50.930;4.038;2022-11-20T03:58:40;56.40;;;29.97;;
14510;SDS011;7341;50.930;4.038;2022-11-20T04:01:26;62.93;;;29.63;;
14510;SDS011;7341;50.930;4.038;2022-11-20T04:03:55;56.37;;;28.57;;
14510;SDS011;7341;50.930;4.038;2022-11-20T04:06:29;58.93;;;29.47;;
14510;SDS011;7341;50.930;4.038;2022-11-20T04:09:02;58.00;;;29.40;;
14510;SDS011;7341;50.930;4.038;2022-11-20T04:11:29;66.57;;;30.57;;
14510;SDS011;7341;50.930;4.038;2022-11-20T04:13:59;56.93;;;28.73;;
14510;SDS011;7341;50.930;4.038;2022-11-20T04:16:35;58.20;;;29.70;;
14510;SDS011;7341;50.930;4.038;2022-11-20T04:19:03;55.50;;;30.37;;
14510;SDS011;7341;50.930;4.038;2022-11-20T04:21:31;57.37;;;29.83;;
14510;SDS011;7341;50.930;4.038;2022-11-20T04:23:58;60.10;;;30.23;;
14510;SDS011;7341;50.930;4.038;2022-11-20T04:26:26;62.73;;;29.43;;
14510;SDS011;7341;50.930;4.038;2022-11-20T04:28:54;61.73;;;29.10;;
14510;SDS011;7341;50.930;4.038;2022-11-20T04:31:24;59.73;;;29.93;;
14510;SDS011;7341;50.930;4.038;2022-11-20T04:33:54;59.10;;;31.77;;
14510;SDS011;7341;50.930;4.038;2022-11-20T04:36:22;62.70;;;31.00;;
14510;SDS011;7341;50.930;4.038;2022-11-20T04:38:50;60.67;;;29.87;;
14510;SDS011;7341;50.930;4.038;2022-11-20T04:41:19;64.53;;;30.70;;
14510;SDS011;7341;50.930;4.038;2022-11-20T04:43:48;62.83;;;29.23;;
14510;SDS011;7341;50.930;4.038;2022-11-20T04:46:16;63.97;;;33.23;;
14510;SDS011;7341;50.930;4.038;2022-11-20T04:48:43;64.87;;;31.57;;
14510;SDS011;7341;50.930;4.038;2022-11-20T04:51:12;67.97;;;29.83;;
14510;SDS011;7341;50.930;4.038;2022-11-20T04:53:41;62.90;;;29.50;;
14510;SDS011;7341;50.930;4.038;2022-11-20T04:56:09;65.07;;;31.27;;
14510;SDS011;7341;50.930;4.038;2022-11-20T04:58:38;62.63;;;29.50;;
14510;SDS011;7341;50.930;4.038;2022-11-20T05:01:09;56.40;;;28.83;;
14510;SDS011;7341;50.930;4.038;2022-11-20T05:03:47;57.27;;;28.30;;
14510;SDS011;7341;50.930;4.038;2022-11-20T05:06:17;67.83;;;31.40;;
14510;SDS011;7341;50.930;4.038;2022-11-20T05:08:55;63.87;;;30.87;;
14510;SDS011;7341;50.930;4.038;2022-11-20T05:11:22;84.53;;;43.40;;
14510;SDS011;7341;50.930;4.038;2022-11-20T05:13:50;67.87;;;32.97;;
14510;SDS011;7341;50.930;4.038;2022-11-20T05:16:22;75.57;;;31.80;;
14510;SDS011;7341;50.930;4.038;2022-11-20T05:18:50;62.97;;;31.17;;
14510;SDS011;7341;50.930;4.038;2022-11-20T05:21:25;60.43;;;30.70;;
14510;SDS011;7341;50.930;4.038;2022-11-20T05:23:58;66.33;;;30.83;;
14510;SDS011;7341;50.930;4.038;2022-11-20T05:26:40;57.40;;;28.97;;
14510;SDS011;7341;50.930;4.038;2022-11-20T05:29:09;65.10;;;31.37;;
14510;SDS011;7341;50.930;4.038;2022-11-20T05:31:38;67.53;;;31.30;;
14510;SDS011;7341;50.930;4.038;2022-11-20T05:34:06;70.37;;;32.10;;
14510;SDS011;7341;50.930;4.038;2022-11-20T05:36:38;65.80;;;30.63;;
14510;SDS011;7341;50.930;4.038;2022-11-20T05:39:05;61.67;;;30.63;;
14510;SDS011;7341;50.930;4.038;2022-11-20T05:41:35;65.10;;;31.07;;
14510;SDS011;7341;50.930;4.038;2022-11-20T05:44:09;70.50;;;30.60;;
14510;SDS011;7341;50.930;4.038;2022-11-20T05:46:37;77.70;;;31.80;;
14510;SDS011;7341;50.930;4.038;2022-11-20T05:49:04;73.03;;;30.83;;
14510;SDS011;7341;50.930;4.038;2022-11-20T05:51:38;70.67;;;30.53;;
14510;SDS011;7341;50.930;4.038;2022-11-20T05:54:07;73.70;;;31.97;;
14510;SDS011;7341;50.930;4.038;2022-11-20T05:56:36;79.53;;;31.27;;
14510;SDS011;7341;50.930;4.038;2022-11-20T05:59:02;82.73;;;32.93;;
14510;SDS011;7341;50.930;4.038;2022-11-20T06:01:43;79.40;;;30.80;;
14510;SDS011;7341;50.930;4.038;2022-11-20T06:04:12;87.30;;;32.80;;
14510;SDS011;7341;50.930;4.038;2022-11-20T06:06:43;88.40;;;32.03;;
14510;SDS011;7341;50.930;4.038;2022-11-20T06:09:10;82.73;;;33.87;;
14510;SDS011;7341;50.930;4.038;2022-11-20T06:11:40;84.30;;;31.90;;
14510;SDS011;7341;50.930;4.038;2022-11-20T06:14:07;80.33;;;31.93;;
14510;SDS011;7341;50.930;4.038;2022-11-20T06:16:35;77.77;;;31.70;;
14510;SDS011;7341;50.930;4.038;2022-11-20T06:19:02;85.40;;;32.47;;
14510;SDS011;7341;50.930;4.038;2022-11-20T06:21:29;92.37;;;33.97;;
14510;SDS011;7341;50.930;4.038;2022-11-20T06:26:50;85.50;;;32.00;;
14510;SDS011;7341;50.930;4.038;2022-11-20T06:29:23;84.13;;;32.53;;
14510;SDS011;7341;50.930;4.038;2022-11-20T06:31:51;80.17;;;33.13;;
14510;SDS011;7341;50.930;4.038;2022-11-20T06:34:18;83.13;;;32.53;;
14510;SDS011;7341;50.930;4.038;2022-11-20T06:36:48;83.17;;;34.37;;
14510;SDS011;7341;50.930;4.038;2022-11-20T06:39:27;82.93;;;33.87;;
14510;SDS011;7341;50.930;4.038;2022-11-20T06:42:02;83.57;;;32.50;;
14510;SDS011;7341;50.930;4.038;2022-11-20T06:44:34;84.53;;;33.47;;
14510;SDS011;7341;50.930;4.038;2022-11-20T06:47:01;79.73;;;34.17;;
14510;SDS011;7341;50.930;4.038;2022-11-20T06:49:29;72.47;;;32.00;;
14510;SDS011;7341;50.930;4.038;2022-11-20T06:52:10;86.37;;;31.93;;
14510;SDS011;7341;50.930;4.038;2022-11-20T06:54:57;78.17;;;31.90;;
14510;SDS011;7341;50.930;4.038;2022-11-20T06:57:25;77.33;;;33.00;;
14510;SDS011;7341;50.930;4.038;2022-11-20T06:59:54;77.37;;;30.73;;
14510;SDS011;7341;50.930;4.038;2022-11-20T07:02:24;71.00;;;31.83;;
14510;SDS011;7341;50.930;4.038;2022-11-20T07:04:52;77.37;;;31.17;;
14510;SDS011;7341;50.930;4.038;2022-11-20T07:07:23;73.23;;;31.93;;
14510;SDS011;7341;50.930;4.038;2022-11-20T07:09:52;78.03;;;32.77;;
14510;SDS011;7341;50.930;4.038;2022-11-20T07:12:39;71.87;;;30.70;;
14510;SDS011;7341;50.930;4.038;2022-11-20T07:15:11;89.97;;;40.08;;
14510;SDS011;7341;50.930;4.038;2022-11-20T07:17:51;77.77;;;32.70;;
14510;SDS011;7341;50.930;4.038;2022-11-20T07:20:20;76.77;;;31.90;;
14510;SDS011;7341;50.930;4.038;2022-11-20T07:22:52;71.30;;;30.27;;
14510;SDS011;7341;50.930;4.038;2022-11-20T07:25:21;66.43;;;30.90;;
14510;SDS011;7341;50.930;4.038;2022-11-20T07:27:49;68.97;;;30.57;;
14510;SDS011;7341;50.930;4.038;2022-11-20T07:30:23;64.70;;;30.40;;
14510;SDS011;7341;50.930;4.038;2022-11-20T07:32:50;74.20;;;31.67;;
14510;SDS011;7341;50.930;4.038;2022-11-20T07:35:18;69.43;;;29.77;;
14510;SDS011;7341;50.930;4.038;2022-11-20T07:37:45;71.13;;;30.57;;
14510;SDS011;7341;50.930;4.038;2022-11-20T07:40:14;76.75;;;36.60;;
14510;SDS011;7341;50.930;4.038;2022-11-20T07:42:51;66.93;;;30.40;;
14510;SDS011;7341;50.930;4.038;2022-11-20T07:45:23;62.63;;;30.67;;
14510;SDS011;7341;50.930;4.038;2022-11-20T07:47:51;60.17;;;27.60;;
14510;SDS011;7341;50.930;4.038;2022-11-20T07:50:19;65.07;;;29.43;;
14510;SDS011;7341;50.930;4.038;2022-11-20T07:52:46;64.23;;;29.03;;
14510;SDS011;7341;50.930;4.038;2022-11-20T07:55:13;59.77;;;28.87;;
14510;SDS011;7341;50.930;4.038;2022-11-20T07:57:40;58.27;;;26.90;;
14510;SDS011;7341;50.930;4.038;2022-11-20T08:00:10;58.77;;;26.17;;
14510;SDS011;7341;50.930;4.038;2022-11-20T08:02:37;66.87;;;28.43;;
14510;SDS011;7341;50.930;4.038;2022-11-20T08:05:05;61.27;;;27.13;;
14510;SDS011;7341;50.930;4.038;2022-11-20T08:07:36;80.00;;;38.97;;
14510;SDS011;7341;50.930;4.038;2022-11-20T08:10:04;72.77;;;29.97;;
14510;SDS011;7341;50.930;4.038;2022-11-20T08:12:31;61.60;;;27.83;;
14510;SDS011;7341;50.930;4.038;2022-11-20T08:15:17;66.07;;;27.87;;
14510;SDS011;7341;50.930;4.038;2022-11-20T08:17:43;59.60;;;26.03;;
14510;SDS011;7341;50.930;4.038;2022-11-20T08:20:10;64.30;;;27.70;;
14510;SDS011;7341;50.930;4.038;2022-11-20T08:22:37;60.03;;;26.87;;
14510;SDS011;7341;50.930;4.038;2022-11-20T08:25:04;54.97;;;25.07;;
14510;SDS011;7341;50.930;4.038;2022-11-20T08:27:31;57.57;;;26.83;;
14510;SDS011;7341;50.930;4.038;2022-11-20T08:29:58;57.37;;;25.90;;
14510;SDS011;7341;50.930;4.038;2022-11-20T08:32:27;62.47;;;25.83;;
14510;SDS011;7341;50.930;4.038;2022-11-20T08:34:53;62.10;;;26.37;;
14510;SDS011;7341;50.930;4.038;2022-11-20T08:37:20;54.83;;;24.43;;
14510;SDS011;7341;50.930;4.038;2022-11-20T08:39:47;57.87;;;25.67;;
14510;SDS011;7341;50.930;4.038;2022-11-20T08:42:14;61.90;;;25.87;;
14510;SDS011;7341;50.930;4.038;2022-11-20T08:44:40;56.47;;;25.30;;
14510;SDS011;7341;50.930;4.038;2022-11-20T08:47:08;61.07;;;25.13;;
14510;SDS011;7341;50.930;4.038;2022-11-20T08:49:36;52.73;;;24.43;;
14510;SDS011;7341;50.930;4.038;2022-11-20T08:52:03;61.90;;;25.63;;
14510;SDS011;7341;50.930;4.038;2022-11-20T08:54:30;56.27;;;23.90;;
14510;SDS011;7341;50.930;4.038;2022-11-20T08:56:57;54.80;;;23.70;;
14510;SDS011;7341;50.930;4.038;2022-11-20T08:59:24;68.85;;;32.83;;
14510;SDS011;7341;50.930;4.038;2022-11-20T09:01:51;63.23;;;26.57;;
14510;SDS011;7341;50.930;4.038;2022-11-20T09:04:17;57.90;;;25.53;;
14510;SDS011;7341;50.930;4.038;2022-11-20T09:06:46;49.37;;;22.47;;
14510;SDS011;7341;50.930;4.038;2022-11-20T09:09:15;55.87;;;23.53;;
14510;SDS011;7341;50.930;4.038;2022-11-20T09:11:42;53.43;;;24.10;;
14510;SDS011;7341;50.930;4.038;2022-11-20T09:14:09;48.60;;;22.67;;
14510;SDS011;7341;50.930;4.038;2022-11-20T09:16:36;49.77;;;21.90;;
14510;SDS011;7341;50.930;4.038;2022-11-20T09:19:03;47.70;;;21.57;;
14510;SDS011;7341;50.930;4.038;2022-11-20T09:21:30;55.20;;;23.17;;
14510;SDS011;7341;50.930;4.038;2022-11-20T09:23:58;45.53;;;22.60;;
14510;SDS011;7341;50.930;4.038;2022-11-20T09:26:25;41.00;;;20.57;;
14510;SDS011;7341;50.930;4.038;2022-11-20T09:28:52;46.80;;;20.83;;
14510;SDS011;7341;50.930;4.038;2022-11-20T09:31:19;34.43;;;18.50;;
14510;SDS011;7341;50.930;4.038;2022-11-20T09:33:48;44.53;;;20.93;;
14510;SDS011;7341;50.930;4.038;2022-11-20T09:36:15;42.63;;;20.30;;
14510;SDS011;7341;50.930;4.038;2022-11-20T09:38:43;39.23;;;20.73;;
14510;SDS011;7341;50.930;4.038;2022-11-20T09:41:17;39.07;;;20.30;;
14510;SDS011;7341;50.930;4.038;2022-11-20T09:44:03;40.33;;;20.37;;
14510;SDS011;7341;50.930;4.038;2022-11-20T09:46:45;46.00;;;20.20;;
14510;SDS011;7341;50.930;4.038;2022-11-20T09:49:22;35.07;;;18.50;;
14510;SDS011;7341;50.930;4.038;2022-11-20T09:51:57;35.00;;;18.43;;
14510;SDS011;7341;50.930;4.038;2022-11-20T09:54:26;32.43;;;17.30;;
14510;SDS011;7341;50.930;4.038;2022-11-20T09:56:58;33.60;;;18.10;;
14510;SDS011;7341;50.930;4.038;2022-11-20T09:59:32;40.23;;;18.67;;
14510;SDS011;7341;50.930;4.038;2022-11-20T10:02:02;37.37;;;18.80;;
14510;SDS011;7341;50.930;4.038;2022-11-20T10:04:42;28.90;;;16.60;;
14510;SDS011;7341;50.930;4.038;2022-11-20T10:07:15;30.77;;;16.37;;
14510;SDS011;7341;50.930;4.038;2022-11-20T10:09:50;29.00;;;15.63;;
14510;SDS011;7341;50.930;4.038;2022-11-20T10:12:22;26.47;;;14.47;;
14510;SDS011;7341;50.930;4.038;2022-11-20T10:14:56;26.13;;;14.90;;
14510;SDS011;7341;50.930;4.038;2022-11-20T10:17:34;27.30;;;13.50;;
14510;SDS011;7341;50.930;4.038;2022-11-20T10:20:16;22.70;;;12.13;;
14510;SDS011;7341;50.930;4.038;2022-11-20T10:22:53;22.50;;;12.67;;
14510;SDS011;7341;50.930;4.038;2022-11-20T10:25:30;24.43;;;12.27;;
14510;SDS011;7341;50.930;4.038;2022-11-20T10:30:56;15.80;;;10.17;;
14510;SDS011;7341;50.930;4.038;2022-11-20T10:33:28;16.07;;;9.47;;
14510;SDS011;7341;50.930;4.038;2022-11-20T10:36:01;16.23;;;8.77;;
14510;SDS011;7341;50.930;4.038;2022-11-20T10:38:34;12.03;;;8.37;;
14510;SDS011;7341;50.930;4.038;2022-11-20T10:41:06;10.80;;;6.93;;
14510;SDS011;7341;50.930;4.038;2022-11-20T10:43:53;13.30;;;7.03;;
14510;SDS011;7341;50.930;4.038;2022-11-20T10:46:32;12.37;;;6.10;;
14510;SDS011;7341;50.930;4.038;2022-11-20T10:49:04;9.57;;;6.93;;
14510;SDS011;7341;50.930;4.038;2022-11-20T10:51:37;11.40;;;5.47;;
14510;SDS011;7341;50.930;4.038;2022-11-20T10:54:10;8.03;;;4.63;;
14510;SDS011;7341;50.930;4.038;2022-11-20T10:56:45;8.83;;;5.40;;
14510;SDS011;7341;50.930;4.038;2022-11-20T10:59:38;4.53;;;4.13;;
14510;SDS011;7341;50.930;4.038;2022-11-20T11:02:16;7.07;;;5.07;;
14510;SDS011;7341;50.930;4.038;2022-11-20T11:04:45;9.37;;;4.33;;
14510;SDS011;7341;50.930;4.038;2022-11-20T11:07:16;6.90;;;4.07;;
14510;SDS011;7341;50.930;4.038;2022-11-20T11:09:48;8.50;;;3.93;;
14510;SDS011;7341;50.930;4.038;2022-11-20T11:12:16;5.47;;;3.57;;
14510;SDS011;7341;50.930;4.038;2022-11-20T11:14:45;7.40;;;3.87;;
14510;SDS011;7341;50.930;4.038;2022-11-20T11:17:21;9.03;;;3.60;;
14510;SDS011;7341;50.930;4.038;2022-11-20T11:20:02;3.97;;;3.20;;
14510;SDS011;7341;50.930;4.038;2022-11-20T11:22:31;6.47;;;3.40;;
14510;SDS011;7341;50.930;4.038;2022-11-20T11:25:00;6.70;;;3.47;;
14510;SDS011;7341;50.930;4.038;2022-11-20T11:27:32;6.30;;;3.43;;
14510;SDS011;7341;50.930;4.038;2022-11-20T11:30:11;6.33;;;3.20;;
14510;SDS011;7341;50.930;4.038;2022-11-20T11:32:39;7.77;;;2.97;;
14510;SDS011;7341;50.930;4.038;2022-11-20T11:35:11;6.23;;;2.93;;
14510;SDS011;7341;50.930;4.038;2022-11-20T11:37:51;5.00;;;2.80;;
14510;SDS011;7341;50.930;4.038;2022-11-20T11:40:21;4.83;;;2.83;;
14510;SDS011;7341;50.930;4.038;2022-11-20T11:42:54;6.53;;;2.80;;
14510;SDS011;7341;50.930;4.038;2022-11-20T11:45:25;5.67;;;2.80;;
14510;SDS011;7341;50.930;4.038;2022-11-20T11:47:52;4.83;;;2.90;;
14510;SDS011;7341;50.930;4.038;2022-11-20T11:50:22;5.17;;;2.90;;
14510;SDS011;7341;50.930;4.038;2022-11-20T11:53:05;5.00;;;2.87;;
14510;SDS011;7341;50.930;4.038;2022-11-20T11:55:37;4.60;;;2.47;;
14510;SDS011;7341;50.930;4.038;2022-11-20T11:58:13;6.93;;;2.60;;
14510;SDS011;7341;50.930;4.038;2022-11-20T12:00:47;6.23;;;2.70;;
14510;SDS011;7341;50.930;4.038;2022-11-20T12:03:23;8.57;;;3.13;;
14510;SDS011;7341;50.930;4.038;2022-11-20T12:05:55;5.87;;;3.77;;
14510;SDS011;7341;50.930;4.038;2022-11-20T12:08:25;5.63;;;2.70;;
14510;SDS011;7341;50.930;4.038;2022-11-20T12:10:57;6.40;;;2.60;;
14510;SDS011;7341;50.930;4.038;2022-11-20T12:13:39;9.57;;;3.80;;
14510;SDS011;7341;50.930;4.038;2022-11-20T12:16:11;7.28;;;3.60;;
14510;SDS011;7341;50.930;4.038;2022-11-20T12:18:40;6.77;;;3.40;;
14510;SDS011;7341;50.930;4.038;2022-11-20T12:21:15;9.93;;;4.03;;
14510;SDS011;7341;50.930;4.038;2022-11-20T12:23:53;8.73;;;3.30;;
14510;SDS011;7341;50.930;4.038;2022-11-20T12:26:35;6.43;;;3.23;;
14510;SDS011;7341;50.930;4.038;2022-11-20T12:29:16;12.13;;;3.50;;
14510;SDS011;7341;50.930;4.038;2022-11-20T12:31:57;8.60;;;3.07;;
14510;SDS011;7341;50.930;4.038;2022-11-20T12:34:39;7.10;;;3.00;;
14510;SDS011;7341;50.930;4.038;2022-11-20T12:37:24;5.13;;;2.70;;
14510;SDS011;7341;50.930;4.038;2022-11-20T12:40:02;5.97;;;3.47;;
14510;SDS011;7341;50.930;4.038;2022-11-20T12:42:42;3.57;;;2.90;;
14510;SDS011;7341;50.930;4.038;2022-11-20T12:45:46;7.23;;;3.70;;
14510;SDS011;7341;50.930;4.038;2022-11-20T12:51:40;7.43;;;2.90;;
14510;SDS011;7341;50.930;4.038;2022-11-20T12:54:38;5.20;;;3.37;;
14510;SDS011;7341;50.930;4.038;2022-11-20T12:57:19;7.67;;;3.40;;
14510;SDS011;7341;50.930;4.038;2022-11-20T13:00:02;8.57;;;4.50;;
14510;SDS011;7341;50.930;4.038;2022-11-20T13:02:44;6.97;;;3.90;;
14510;SDS011;7341;50.930;4.038;2022-11-20T13:05:39;6.23;;;3.37;;
14510;SDS011;7341;50.930;4.038;2022-11-20T13:08:17;6.47;;;3.00;;
14510;SDS011;7341;50.930;4.038;2022-11-20T13:10:49;5.60;;;2.90;;
14510;SDS011;7341;50.930;4.038;2022-11-20T13:13:23;6.23;;;3.20;;
14510;SDS011;7341;50.930;4.038;2022-11-20T13:15:56;6.10;;;2.93;;
14510;SDS011;7341;50.930;4.038;2022-11-20T13:18:28;3.20;;;2.92;;
14510;SDS011;7341;50.930;4.038;2022-11-20T13:21:12;3.20;;;2.87;;
14510;SDS011;7341;50.930;4.038;2022-11-20T13:23:40;4.30;;;2.93;;
14510;SDS011;7341;50.930;4.038;2022-11-20T13:26:13;3.30;;;3.00;;
14510;SDS011;7341;50.930;4.038;2022-11-20T13:28:43;5.43;;;2.53;;
14510;SDS011;7341;50.930;4.038;2022-11-20T13:31:23;4.50;;;2.57;;
14510;SDS011;7341;50.930;4.038;2022-11-20T13:33:55;2.60;;;2.40;;
14510;SDS011;7341;50.930;4.038;2022-11-20T13:36:24;2.73;;;2.53;;
14510;SDS011;7341;50.930;4.038;2022-11-20T13:38:54;6.33;;;2.90;;
14510;SDS011;7341;50.930;4.038;2022-11-20T13:41:26;4.67;;;2.57;;
14510;SDS011;7341;50.930;4.038;2022-11-20T13:43:54;4.17;;;2.50;;
14510;SDS011;7341;50.930;4.038;2022-11-20T13:46:34;2.93;;;2.27;;
14510;SDS011;7341;50.930;4.038;2022-11-20T13:49:06;5.33;;;2.47;;
14510;SDS011;7341;50.930;4.038;2022-11-20T13:51:37;4.03;;;2.57;;
14510;SDS011;7341;50.930;4.038;2022-11-20T13:54:21;4.17;;;2.03;;
14510;SDS011;7341;50.930;4.038;2022-11-20T13:57:09;3.87;;;2.50;;
14510;SDS011;7341;50.930;4.038;2022-11-20T13:59:56;2.70;;;2.17;;
14510;SDS011;7341;50.930;4.038;2022-11-20T14:02:25;2.30;;;2.10;;
14510;SDS011;7341;50.930;4.038;2022-11-20T14:04:55;2.33;;;2.13;;
14510;SDS011;7341;50.930;4.038;2022-11-20T14:07:27;2.63;;;2.23;;
14510;SDS011;7341;50.930;4.038;2022-11-20T14:10:01;2.63;;;2.30;;
14510;SDS011;7341;50.930;4.038;2022-11-20T14:12:28;3.17;;;2.30;;
14510;SDS011;7341;50.930;4.038;2022-11-20T14:14:58;3.27;;;2.17;;
14510;SDS011;7341;50.930;4.038;2022-11-20T14:17:29;5.00;;;2.30;;
14510;SDS011;7341;50.930;4.038;2022-11-20T14:19:58;4.10;;;2.50;;
14510;SDS011;7341;50.930;4.038;2022-11-20T14:22:29;4.77;;;2.67;;
14510;SDS011;7341;50.930;4.038;2022-11-20T14:25:04;4.07;;;2.50;;
14510;SDS011;7341;50.930;4.038;2022-11-20T14:27:33;4.30;;;2.80;;
14510;SDS011;7341;50.930;4.038;2022-11-20T14:30:03;3.20;;;2.90;;
14510;SDS011;7341;50.930;4.038;2022-11-20T14:32:30;4.20;;;3.13;;
14510;SDS011;7341;50.930;4.038;2022-11-20T14:34:59;2.90;;;2.70;;
14510;SDS011;7341;50.930;4.038;2022-11-20T14:37:35;2.67;;;2.50;;
14510;SDS011;7341;50.930;4.038;2022-11-20T14:40:05;6.53;;;3.10;;
14510;SDS011;7341;50.930;4.038;2022-11-20T14:42:48;3.78;;;3.00;;
14510;SDS011;7341;50.930;4.038;2022-11-20T14:45:15;2.90;;;2.70;;
14510;SDS011;7341;50.930;4.038;2022-11-20T14:47:43;4.60;;;2.80;;
14510;SDS011;7341;50.930;4.038;2022-11-20T14:50:12;4.50;;;3.13;;
14510;SDS011;7341;50.930;4.038;2022-11-20T14:52:50;3.30;;;3.00;;
14510;SDS011;7341;50.930;4.038;2022-11-20T14:55:25;3.10;;;2.90;;
14510;SDS011;7341;50.930;4.038;2022-11-20T14:57:57;3.67;;;2.57;;
14510;SDS011;7341;50.930;4.038;2022-11-20T15:00:27;3.40;;;3.10;;
14510;SDS011;7341;50.930;4.038;2022-11-20T15:02:55;5.13;;;3.47;;
14510;SDS011;7341;50.930;4.038;2022-11-20T15:05:22;6.50;;;3.17;;
14510;SDS011;7341;50.930;4.038;2022-11-20T15:08:04;5.20;;;3.47;;
14510;SDS011;7341;50.930;4.038;2022-11-20T15:10:32;4.43;;;3.03;;
14510;SDS011;7341;50.930;4.038;2022-11-20T15:13:00;5.50;;;3.23;;
14510;SDS011;7341;50.930;4.038;2022-11-20T15:15:29;8.70;;;3.93;;
14510;SDS011;7341;50.930;4.038;2022-11-20T15:17:59;6.37;;;2.80;;
14510;SDS011;7341;50.930;4.038;2022-11-20T15:20:26;4.17;;;3.43;;